Time;durP1;ratioP1;P1;durP2;ratioP2;P2;SDS_P1;SDS_P2;PMS_P1;PMS_P2;Temp;Humidity;BMP_temperature;BMP_pressure;BME280_temperature;BME280_humidity;BME280_pressure;Samples;Min_cycle;Max_cycle;Signal;HPM_P1;HPM_P2
2024/04/22 00:00:00;;;;;;;1.20;0.40;;;;;;;5.17;89.15;98459.97;106701;1263;66614;-38
2024/04/22 00:02:34;;;;;;;0.30;0.20;;;;;;;5.19;89.31;98465.77;106720;1263;72687;-38
2024/04/22 00:05:02;;;;;;;0.40;0.30;;;;;;;5.20;89.44;98467.42;106727;1263;61704;-38
2024/04/22 00:07:29;;;;;;;0.80;0.40;;;;;;;5.21;89.27;98467.98;106808;1268;61131;-38
2024/04/22 00:09:57;;;;;;;0.30;0.30;;;;;;;5.22;89.29;98476.45;106778;1269;74633;-38
2024/04/22 00:12:24;;;;;;;0.30;0.30;;;;;;;5.24;89.42;98474.65;106829;1264;66770;-38
2024/04/22 00:14:51;;;;;;;2.10;0.40;;;;;;;5.25;89.09;98478.52;106783;1266;71075;-38
2024/04/22 00:17:19;;;;;;;0.70;0.40;;;;;;;5.27;88.98;98484.46;106783;1267;61763;-38
2024/04/22 00:19:46;;;;;;;0.40;0.40;;;;;;;5.30;88.86;98482.77;106748;1264;61250;-38
2024/04/22 00:22:14;;;;;;;1.20;0.40;;;;;;;5.31;88.50;98486.34;106748;1264;73382;-38
2024/04/22 00:24:41;;;;;;;1.40;0.30;;;;;;;5.25;88.15;98475.29;106972;1260;67903;-39
2024/04/22 00:27:09;;;;;;;0.80;0.40;;;;;;;5.25;87.87;98491.04;106886;1260;72672;-39
2024/04/22 00:29:36;;;;;;;0.40;0.30;;;;;;;5.26;87.68;98499.50;106862;1262;61244;-39
2024/04/22 00:32:04;;;;;;;0.50;0.50;;;;;;;5.28;87.82;98494.70;106950;1260;61185;-39
2024/04/22 00:34:32;;;;;;;0.70;0.40;;;;;;;5.30;87.43;98498.88;106984;1260;73384;-39
2024/04/22 00:36:59;;;;;;;1.50;0.50;;;;;;;5.31;87.33;98498.61;106922;1260;67600;-39
2024/04/22 00:39:27;;;;;;;0.70;0.50;;;;;;;5.33;87.60;98499.67;106997;1264;72758;-39
2024/04/22 00:41:54;;;;;;;1.50;0.30;;;;;;;5.34;87.71;98503.14;106992;1263;61193;-39
2024/04/22 00:44:21;;;;;;;0.80;0.50;;;;;;;5.35;87.69;98507.55;107004;1260;58808;-39
2024/04/22 00:46:49;;;;;;;2.50;0.40;;;;;;;5.37;87.62;98506.70;106974;1261;74686;-39
2024/04/22 00:49:16;;;;;;;0.40;0.30;;;;;;;5.38;87.00;98503.64;106985;1260;66314;-39
2024/04/22 00:51:45;;;;;;;0.80;0.50;;;;;;;5.39;86.79;98511.04;106934;1264;72714;-39
2024/04/22 00:54:13;;;;;;;0.50;0.50;;;;;;;5.41;86.88;98516.41;107023;1261;61198;-39
2024/04/22 00:56:41;;;;;;;0.60;0.50;;;;;;;5.41;86.88;98521.78;106962;1261;61270;-39
2024/04/22 00:59:08;;;;;;;0.50;0.50;;;;;;;5.41;86.58;98527.61;106974;1260;74673;-39
2024/04/22 01:01:36;;;;;;;0.50;0.50;;;;;;;5.41;86.53;98526.14;107001;1265;67645;-39
2024/04/22 01:04:03;;;;;;;2.40;0.60;;;;;;;5.43;86.39;98530.56;106864;1261;72755;-39
2024/04/22 01:06:31;;;;;;;0.40;0.40;;;;;;;5.46;86.48;98534.80;106869;1266;61689;-37
2024/04/22 01:08:58;;;;;;;0.60;0.50;;;;;;;5.50;86.14;98538.28;107004;1260;61159;-37
2024/04/22 01:11:26;;;;;;;0.90;0.50;;;;;;;5.51;85.99;98544.61;107000;1260;73385;-37
2024/04/22 01:13:57;;;;;;;0.80;0.50;;;;;;;5.52;85.86;98549.33;107006;1260;66917;-37
2024/04/22 01:16:24;;;;;;;0.50;0.40;;;;;;;5.53;85.56;98553.80;106964;1263;71417;-38
2024/04/22 01:18:51;;;;;;;0.30;0.30;;;;;;;5.55;85.59;98559.15;106883;1261;61356;-38
2024/04/22 01:21:28;;;;;;;2.00;0.50;;;;;;;5.54;85.31;98562.36;106943;1265;61276;-38
2024/04/22 01:23:55;;;;;;;0.70;0.40;;;;;;;5.54;85.04;98563.50;106914;1260;74688;-38
2024/04/22 01:26:26;;;;;;;1.40;0.50;;;;;;;5.56;84.54;98570.02;106886;1260;67628;-38
2024/04/22 01:28:53;;;;;;;2.20;0.40;;;;;;;5.59;84.45;98573.15;106934;1260;72653;-38
2024/04/22 01:31:21;;;;;;;0.30;0.30;;;;;;;5.62;84.63;98576.01;106945;1263;61314;-38
2024/04/22 01:33:48;;;;;;;0.60;0.40;;;;;;;5.63;84.05;98580.70;106918;1261;61176;-38
2024/04/22 01:36:16;;;;;;;0.70;0.40;;;;;;;5.60;83.93;98584.64;106992;1261;73385;-38
2024/04/22 01:38:44;;;;;;;0.30;0.30;;;;;;;5.59;84.18;98590.06;106994;1260;67780;-38
2024/04/22 01:41:12;;;;;;;0.60;0.60;;;;;;;5.60;84.34;98597.02;107002;1264;72695;-38
2024/04/22 01:43:39;;;;;;;2.20;0.40;;;;;;;5.62;84.49;98596.81;106992;1261;61727;-38
2024/04/22 01:46:06;;;;;;;0.40;0.40;;;;;;;5.61;84.35;98596.49;107019;1260;61359;-38
2024/04/22 01:48:34;;;;;;;0.50;0.40;;;;;;;5.61;84.34;98603.93;107251;1258;73689;-38
2024/04/22 01:51:01;;;;;;;0.70;0.40;;;;;;;5.61;84.74;98610.70;107267;1257;66800;-38
2024/04/22 01:53:29;;;;;;;0.70;0.60;;;;;;;5.60;84.35;98608.91;107257;1262;72675;-38
2024/04/22 01:55:59;;;;;;;0.40;0.40;;;;;;;5.57;84.32;98610.66;107326;1258;60911;-38
2024/04/22 01:58:27;;;;;;;1.10;0.30;;;;;;;5.55;84.71;98616.63;107280;1256;61055;-38
2024/04/22 02:00:54;;;;;;;0.40;0.40;;;;;;;5.57;84.57;98622.80;107186;1256;72384;-38
2024/04/22 02:03:21;;;;;;;0.70;0.30;;;;;;;5.59;84.01;98626.23;107178;1256;67897;-38
2024/04/22 02:05:49;;;;;;;0.40;0.40;;;;;;;5.60;83.12;98624.81;107203;1257;72709;-38
2024/04/22 02:08:16;;;;;;;1.10;0.30;;;;;;;5.63;83.05;98631.18;107224;1262;61192;-38
2024/04/22 02:10:44;;;;;;;0.60;0.40;;;;;;;5.62;82.97;98635.45;107222;1262;61707;-38
2024/04/22 02:13:12;;;;;;;0.80;0.50;;;;;;;5.60;83.17;98640.35;107292;1259;74657;-38
2024/04/22 02:15:39;;;;;;;0.40;0.30;;;;;;;5.62;82.83;98642.36;107264;1262;67592;-38
2024/04/22 02:18:07;;;;;;;1.00;0.50;;;;;;;5.65;82.63;98644.78;107128;1257;73166;-38
2024/04/22 02:20:35;;;;;;;0.40;0.40;;;;;;;5.67;81.98;98642.14;107279;1263;61659;-38
2024/04/22 02:23:02;;;;;;;3.40;0.60;;;;;;;5.68;81.35;98653.23;107226;1263;60410;-38
2024/04/22 02:25:31;;;;;;;1.50;0.70;;;;;;;5.68;82.05;98656.30;107226;1257;74681;-39
2024/04/22 02:27:59;;;;;;;0.50;0.50;;;;;;;5.69;82.03;98660.48;107228;1258;67572;-39
2024/04/22 02:30:26;;;;;;;0.80;0.60;;;;;;;5.72;81.70;98656.23;107208;1256;72727;-39
2024/04/22 02:32:54;;;;;;;0.80;0.60;;;;;;;5.73;81.19;98670.55;107252;1259;61372;-38
2024/04/22 02:35:21;;;;;;;2.00;0.40;;;;;;;5.76;81.33;98673.40;107253;1257;61264;-38
2024/04/22 02:37:49;;;;;;;1.20;0.50;;;;;;;5.76;81.51;98684.45;107271;1257;74670;-38
2024/04/22 02:40:16;;;;;;;0.60;0.40;;;;;;;5.75;81.85;98684.14;107241;1260;67564;-38
2024/04/22 02:42:43;;;;;;;0.50;0.50;;;;;;;5.76;81.73;98686.14;107266;1257;70795;-38
2024/04/22 02:45:11;;;;;;;0.30;0.30;;;;;;;5.77;81.29;98686.85;107264;1257;61715;-38
2024/04/22 02:47:38;;;;;;;0.90;0.50;;;;;;;5.79;81.06;98688.84;107204;1257;60386;-38
2024/04/22 02:50:06;;;;;;;0.40;0.40;;;;;;;5.81;81.18;98690.44;107206;1257;74627;-38
2024/04/22 02:52:33;;;;;;;0.50;0.50;;;;;;;5.82;80.81;98691.45;107199;1257;66787;-38
2024/04/22 02:55:01;;;;;;;0.50;0.50;;;;;;;5.80;80.42;98693.80;107225;1258;72817;-38
2024/04/22 02:57:28;;;;;;;0.90;0.50;;;;;;;5.80;80.11;98696.48;107148;1257;61237;-38
2024/04/22 02:59:56;;;;;;;2.30;0.50;;;;;;;5.81;79.82;98697.36;107202;1258;61136;-38
2024/04/22 03:02:23;;;;;;;1.40;0.50;;;;;;;5.83;79.51;98696.57;107230;1257;73382;-38
2024/04/22 03:04:52;;;;;;;0.50;0.50;;;;;;;5.85;79.77;98706.62;107199;1257;67811;-38
2024/04/22 03:07:19;;;;;;;1.10;0.60;;;;;;;5.86;80.21;98705.55;107215;1258;72662;-38
2024/04/22 03:09:49;;;;;;;2.40;0.70;;;;;;;5.83;79.63;98710.00;107233;1256;61793;-38
2024/04/22 03:12:16;;;;;;;0.40;0.40;;;;;;;5.83;79.10;98709.10;107252;1257;61166;-38
2024/04/22 03:14:44;;;;;;;1.90;0.60;;;;;;;5.85;79.47;98717.98;107274;1256;73411;-38
2024/04/22 03:17:11;;;;;;;1.80;0.60;;;;;;;5.87;79.32;98716.14;107248;1261;66760;-38
2024/04/22 03:19:39;;;;;;;1.40;0.50;;;;;;;5.88;79.45;98726.70;107320;1257;72694;-38
2024/04/22 03:22:06;;;;;;;1.90;0.50;;;;;;;5.87;79.35;98732.34;107235;1258;61231;-38
2024/04/22 03:24:34;;;;;;;0.60;0.40;;;;;;;5.86;78.97;98733.52;107278;1257;60463;-38
2024/04/22 03:27:01;;;;;;;0.60;0.50;;;;;;;5.87;78.19;98736.86;107269;1257;73580;-38
2024/04/22 03:29:29;;;;;;;0.30;0.30;;;;;;;5.88;77.91;98740.63;107310;1256;66132;-38
2024/04/22 03:31:56;;;;;;;1.50;0.50;;;;;;;5.90;77.62;98745.52;107238;1263;71575;-38
2024/04/22 03:34:24;;;;;;;0.60;0.40;;;;;;;5.89;77.29;98754.41;107187;1256;61202;-38
2024/04/22 03:36:51;;;;;;;1.70;0.50;;;;;;;5.88;77.24;98756.36;107179;1257;61238;-38
2024/04/22 03:39:18;;;;;;;1.30;0.40;;;;;;;5.88;76.49;98755.35;107214;1257;74709;-38
2024/04/22 03:41:46;;;;;;;0.80;0.40;;;;;;;5.92;76.26;98756.25;107197;1257;68020;-38
2024/04/22 03:44:13;;;;;;;0.50;0.50;;;;;;;5.95;76.24;98760.58;107183;1261;72670;-38
2024/04/22 03:52:13;;;;;;;1.70;0.50;;;;;;;5.99;75.78;98762.83;105777;1257;1003500;-38
2024/04/22 03:54:40;;;;;;;1.60;0.50;;;;;;;6.03;75.62;98761.95;107239;1257;68072;-38
2024/04/22 03:57:08;;;;;;;1.60;0.50;;;;;;;6.05;74.87;98765.30;107200;1258;71395;-38
2024/04/22 03:59:35;;;;;;;1.30;0.50;;;;;;;6.05;74.84;98772.21;107265;1262;61215;-38
2024/04/22 04:02:03;;;;;;;0.40;0.40;;;;;;;6.05;75.32;98776.23;107262;1257;61202;-38
2024/04/22 04:04:31;;;;;;;0.30;0.30;;;;;;;6.08;75.40;98781.21;107266;1257;74679;-38
2024/04/22 04:06:59;;;;;;;0.70;0.40;;;;;;;6.12;75.62;98788.98;107269;1260;66597;-38
2024/04/22 04:09:26;;;;;;;1.70;0.50;;;;;;;6.15;75.95;98796.64;107237;1262;72790;-38
2024/04/22 04:11:53;;;;;;;0.70;0.60;;;;;;;6.17;76.02;98803.98;107216;1261;60398;-38
2024/04/22 04:14:21;;;;;;;0.90;0.70;;;;;;;6.15;76.44;98809.30;107259;1257;60030;-38
2024/04/22 04:16:48;;;;;;;0.70;0.60;;;;;;;6.13;76.98;98815.16;107251;1257;74686;-38
2024/04/22 04:19:16;;;;;;;0.40;0.40;;;;;;;6.13;77.06;98819.27;107303;1260;67591;-38
2024/04/22 04:21:43;;;;;;;1.20;0.60;;;;;;;6.16;77.16;98824.56;107191;1260;72788;-38
2024/04/22 04:24:11;;;;;;;1.20;0.50;;;;;;;6.19;77.41;98822.80;107243;1263;61285;-38
2024/04/22 04:26:38;;;;;;;1.00;0.70;;;;;;;6.21;77.66;98827.99;107277;1262;61176;-38
2024/04/22 04:29:07;;;;;;;1.80;0.70;;;;;;;6.20;77.61;98834.04;107236;1257;74673;-38
2024/04/22 04:31:34;;;;;;;0.80;0.60;;;;;;;6.18;78.27;98834.67;107234;1260;67683;-38
2024/04/22 04:34:01;;;;;;;2.00;0.60;;;;;;;6.18;78.53;98839.33;107197;1258;72777;-38
2024/04/22 04:36:29;;;;;;;1.50;0.70;;;;;;;6.20;78.57;98839.03;107250;1258;61339;-38
2024/04/22 04:38:56;;;;;;;0.50;0.50;;;;;;;6.22;78.78;98844.19;107210;1260;59623;-38
2024/04/22 04:41:23;;;;;;;2.10;1.10;;;;;;;6.25;79.00;98843.20;107213;1258;73573;-38
2024/04/22 04:43:51;;;;;;;1.00;0.90;;;;;;;6.26;79.26;98848.14;107238;1261;67577;-38
2024/04/22 04:46:18;;;;;;;2.00;0.90;;;;;;;6.25;79.52;98847.71;107251;1260;72995;-38
2024/04/22 04:48:46;;;;;;;1.00;0.90;;;;;;;6.26;79.83;98846.38;107251;1258;61244;-38
2024/04/22 04:51:13;;;;;;;2.00;1.10;;;;;;;6.31;79.97;98849.59;107312;1255;61170;-38
2024/04/22 04:53:40;;;;;;;2.80;1.10;;;;;;;6.35;80.07;98850.98;107288;1257;74675;-38
2024/04/22 04:56:08;;;;;;;1.90;1.40;;;;;;;6.38;80.31;98850.70;107253;1257;66264;-38
2024/04/22 04:58:35;;;;;;;2.00;1.10;;;;;;;6.38;80.14;98856.24;107234;1261;71398;-38
2024/04/22 05:01:04;;;;;;;2.50;1.60;;;;;;;6.38;79.98;98855.92;107258;1258;61259;-38
2024/04/22 05:03:31;;;;;;;3.90;1.10;;;;;;;6.41;80.12;98861.55;107256;1256;61090;-38
2024/04/22 05:05:59;;;;;;;1.70;1.30;;;;;;;6.45;79.97;98863.11;107267;1256;72632;-38
2024/04/22 05:08:27;;;;;;;2.50;1.10;;;;;;;6.47;79.26;98866.27;107175;1260;70218;-39
2024/04/22 05:10:57;;;;;;;2.40;1.20;;;;;;;6.50;79.07;98871.88;107148;1260;73069;-38
2024/04/22 05:13:25;;;;;;;2.30;1.40;;;;;;;6.50;78.56;98871.89;107211;1258;61198;-38
2024/04/22 05:15:53;;;;;;;1.60;1.20;;;;;;;6.48;77.98;98874.05;107207;1261;60958;-38
2024/04/22 05:18:20;;;;;;;2.00;1.30;;;;;;;6.48;77.95;98881.67;107163;1259;73530;-38
2024/04/22 05:20:48;;;;;;;3.00;1.50;;;;;;;6.51;77.49;98879.91;107248;1263;67633;-38
2024/04/22 05:23:15;;;;;;;1.50;1.40;;;;;;;6.54;77.15;98889.52;107267;1256;72799;-38
2024/04/22 05:25:43;;;;;;;5.10;1.50;;;;;;;6.56;76.89;98893.81;107255;1258;61251;-38
2024/04/22 05:28:10;;;;;;;1.40;1.20;;;;;;;6.55;76.91;98902.34;107231;1258;61290;-38
2024/04/22 05:30:40;;;;;;;2.40;1.50;;;;;;;6.56;76.44;98906.52;105742;1263;1003641;-38
2024/04/22 05:36:09;;;;;;;1.80;1.30;;;;;;;6.60;76.01;98907.84;107149;1260;68604;-38
2024/04/22 05:36:11;;;;;;;;;;;;;;;6.65;75.80;98910.75;107254;1261;73160;-38
2024/04/22 05:38:39;;;;;;;2.00;1.20;;;;;;;6.70;75.20;98912.95;107246;1256;61067;-38
2024/04/22 05:41:10;;;;;;;2.40;1.40;;;;;;;6.73;75.56;98913.73;107269;1259;61770;-38
2024/04/22 05:43:38;;;;;;;3.20;1.40;;;;;;;6.76;75.01;98925.59;107264;1258;74658;-38
2024/04/22 05:46:06;;;;;;;3.10;1.30;;;;;;;6.79;74.16;98927.67;107287;1257;68025;-38
2024/04/22 05:48:34;;;;;;;2.00;1.20;;;;;;;6.84;74.37;98934.44;107313;1257;71416;-38
2024/04/22 05:51:03;;;;;;;1.20;1.10;;;;;;;6.88;73.65;98934.39;107244;1256;61777;-38
2024/04/22 05:53:30;;;;;;;1.40;1.20;;;;;;;6.91;73.21;98950.02;107317;1257;60199;-38
2024/04/22 05:55:57;;;;;;;2.50;1.00;;;;;;;6.92;73.28;98956.52;107246;1258;74613;-38
2024/04/22 05:58:25;;;;;;;1.80;1.30;;;;;;;6.93;73.72;98965.24;107155;1257;68923;-38
2024/04/22 06:00:53;;;;;;;3.30;1.30;;;;;;;6.98;73.22;98972.91;107163;1260;72805;-38
2024/04/22 06:03:20;;;;;;;1.10;1.00;;;;;;;7.02;72.46;98976.40;107167;1261;63886;-38
2024/04/22 06:05:48;;;;;;;2.00;1.40;;;;;;;7.06;72.00;98986.05;107272;1255;62184;-38
2024/04/22 06:08:16;;;;;;;1.80;1.20;;;;;;;7.05;71.70;98985.36;107239;1257;76839;-38
2024/04/22 06:10:44;;;;;;;3.10;1.20;;;;;;;7.03;71.33;98996.92;107292;1257;65627;-38
2024/04/22 06:13:11;;;;;;;4.30;1.60;;;;;;;7.05;71.48;99003.29;107224;1258;71904;-38
2024/04/22 06:15:41;;;;;;;1.30;1.20;;;;;;;7.10;70.91;99008.81;107268;1258;61025;-38
2024/04/22 06:18:08;;;;;;;2.70;1.30;;;;;;;7.15;70.75;99013.18;107215;1257;61036;-38
2024/04/22 06:20:36;;;;;;;1.80;1.40;;;;;;;7.17;70.24;99024.78;107277;1257;75049;-38
2024/04/22 06:23:03;;;;;;;2.50;1.30;;;;;;;7.16;70.30;99033.71;107277;1257;67208;-38
2024/04/22 06:25:31;;;;;;;4.10;1.40;;;;;;;7.14;70.69;99042.73;107306;1258;72753;-38
2024/04/22 06:27:58;;;;;;;1.90;1.20;;;;;;;7.12;70.94;99049.29;107285;1260;59992;-38
2024/04/22 06:30:26;;;;;;;1.90;1.40;;;;;;;7.12;71.02;99048.84;107240;1257;61173;-39
2024/04/22 06:32:55;;;;;;;2.00;1.50;;;;;;;7.16;71.06;99058.89;107256;1257;74974;-38
2024/04/22 06:35:22;;;;;;;2.50;1.50;;;;;;;7.18;70.76;99064.70;107276;1257;68604;-38
2024/04/22 06:37:50;;;;;;;3.40;1.30;;;;;;;7.17;70.76;99071.69;107273;1256;71524;-38
2024/04/22 06:40:17;;;;;;;3.00;1.50;;;;;;;7.15;69.76;99081.66;107263;1260;61344;-38
2024/04/22 06:42:45;;;;;;;3.80;1.30;;;;;;;7.15;69.71;99087.50;107271;1257;61116;-38
2024/04/22 06:45:13;;;;;;;2.40;1.50;;;;;;;7.18;70.53;99090.20;107203;1258;73169;-38
2024/04/22 06:47:41;;;;;;;2.00;1.60;;;;;;;7.21;70.55;99096.54;107160;1257;70648;-38
2024/04/22 06:50:08;;;;;;;3.70;1.60;;;;;;;7.22;70.53;99101.88;107105;1257;71602;-38
2024/04/22 06:52:36;;;;;;;3.60;1.60;;;;;;;7.22;70.40;99104.27;107205;1257;61251;-38
2024/04/22 06:55:04;;;;;;;2.30;1.50;;;;;;;7.20;70.27;99122.86;107127;1257;61215;-38
2024/04/22 06:57:31;;;;;;;2.30;1.50;;;;;;;7.21;69.97;99130.65;107195;1258;74769;-38
2024/04/22 06:59:59;;;;;;;1.60;1.40;;;;;;;7.24;69.54;99138.21;107217;1260;66830;-38
2024/04/22 07:02:27;;;;;;;3.60;1.50;;;;;;;7.26;68.89;99141.04;107303;1257;71471;-38
2024/04/22 07:04:56;;;;;;;;;;;;;;;7.25;69.04;99148.58;107286;1257;61240;-40
2024/04/22 07:07:24;;;;;;;2.80;1.80;;;;;;;7.24;69.32;99145.00;107236;1257;61818;-38
2024/04/22 07:09:52;;;;;;;2.90;2.00;;;;;;;7.22;69.47;99144.33;107219;1257;76134;-38
2024/04/22 07:12:19;;;;;;;5.10;1.70;;;;;;;7.28;69.90;99149.41;107277;1256;67775;-38
2024/04/22 07:14:47;;;;;;;2.00;1.70;;;;;;;7.35;69.38;99156.78;107261;1260;74786;-38
2024/04/22 07:17:14;;;;;;;3.20;1.90;;;;;;;7.41;69.23;99163.44;107217;1260;61089;-38
2024/04/22 07:19:42;;;;;;;1.60;1.50;;;;;;;7.42;69.10;99168.70;107280;1257;62135;-38
2024/04/22 07:22:09;;;;;;;4.80;1.80;;;;;;;7.44;69.39;99172.91;107269;1257;75350;-39
2024/04/22 07:24:37;;;;;;;3.90;1.80;;;;;;;7.46;68.63;99182.84;107246;1257;67789;-38
2024/04/22 07:27:06;;;;;;;3.80;2.40;;;;;;;7.50;68.37;99187.17;107222;1260;74838;-38
2024/04/22 07:29:43;;;;;;;2.50;1.40;;;;;;;7.52;68.30;99190.48;107288;1257;61244;-39
2024/04/22 07:32:11;;;;;;;2.80;1.90;;;;;;;7.54;68.53;99193.15;107299;1258;61125;-38
2024/04/22 07:34:39;;;;;;;1.70;1.60;;;;;;;7.56;68.80;99201.05;107215;1258;74816;-38
2024/04/22 07:37:22;;;;;;;2.00;1.60;;;;;;;7.60;68.63;99206.02;107176;1257;68284;-38
2024/04/22 07:39:50;;;;;;;2.20;1.90;;;;;;;7.64;67.60;99207.78;107075;1257;74953;-38
2024/04/22 07:42:20;;;;;;;;;;;;;;;7.65;67.11;99218.27;107139;1257;61244;-38
2024/04/22 07:44:49;;;;;;;3.50;1.70;;;;;;;7.63;67.75;99220.16;107210;1260;61375;-38
2024/04/22 07:47:16;;;;;;;1.90;1.50;;;;;;;7.61;67.48;99227.10;107286;1257;74013;-38
2024/04/22 07:49:43;;;;;;;5.30;2.20;;;;;;;7.62;67.81;99230.05;107231;1257;68193;-38
2024/04/22 07:52:12;;;;;;;2.20;1.80;;;;;;;7.67;67.92;99232.52;107248;1260;72786;-38
2024/04/22 07:54:40;;;;;;;2.10;1.40;;;;;;;7.73;67.40;99239.16;105741;1257;1003079;-38
2024/04/22 08:00:03;;;;;;;2.40;1.60;;;;;;;7.83;67.63;99246.69;104098;1292;600179;-38
2024/04/22 08:02:39;;;;;;;2.00;1.60;;;;;;;7.86;67.37;99255.71;106512;1275;60358;-38
2024/04/22 08:05:07;;;;;;;3.60;1.70;;;;;;;7.86;66.65;99261.89;106656;1267;59630;-38
2024/04/22 08:07:35;;;;;;;2.50;1.40;;;;;;;7.85;67.01;99271.79;106632;1266;71913;-38
2024/04/22 08:10:04;;;;;;;1.80;1.60;;;;;;;7.85;67.36;99278.52;106606;1266;66853;-38
2024/04/22 08:12:31;;;;;;;2.70;1.70;;;;;;;7.85;66.85;99286.15;106509;1266;185128;-38
2024/04/22 08:14:59;;;;;;;3.00;1.60;;;;;;;7.82;66.62;99283.75;106741;1270;59672;-38
2024/04/22 08:17:26;;;;;;;2.80;1.90;;;;;;;7.77;66.51;99286.16;106711;1266;60156;-38
2024/04/22 08:19:54;;;;;;;4.60;1.90;;;;;;;7.73;66.96;99288.73;106734;1269;73064;-39
2024/04/22 08:22:25;;;;;;;2.50;1.50;;;;;;;7.72;67.72;99295.81;106737;1266;70188;-39
2024/04/22 08:24:52;;;;;;;2.80;1.70;;;;;;;7.77;67.27;99291.94;106631;1269;71450;-39
2024/04/22 08:27:20;;;;;;;1.90;1.50;;;;;;;7.87;66.86;99295.29;106613;1266;61836;-39
2024/04/22 08:29:52;;;;;;;4.30;2.20;;;;;;;7.96;67.07;99298.41;106621;1266;60168;-39
2024/04/22 08:32:19;;;;;;;2.20;1.90;;;;;;;8.03;67.34;99300.94;106627;1264;72933;-39
2024/04/22 08:34:48;;;;;;;4.40;2.50;;;;;;;8.12;66.70;99308.89;106649;1266;67945;-39
2024/04/22 08:37:16;;;;;;;3.00;1.60;;;;;;;8.15;65.56;99313.77;106731;1266;71438;-39
2024/04/22 08:39:44;;;;;;;3.10;2.00;;;;;;;8.15;65.45;99317.55;106711;1264;60983;-39
2024/04/22 08:42:13;;;;;;;3.00;2.10;;;;;;;8.17;66.10;99326.25;106670;1266;62296;-39
2024/04/22 08:44:40;;;;;;;4.30;2.10;;;;;;;8.24;66.38;99329.75;106651;1267;73963;-39
2024/04/22 08:47:08;;;;;;;5.60;2.20;;;;;;;8.35;67.01;99332.08;106629;1266;68114;-39
2024/04/22 08:49:35;;;;;;;2.40;1.90;;;;;;;8.47;66.59;99336.16;106660;1266;71554;-39
2024/04/22 08:52:03;;;;;;;2.20;1.70;;;;;;;8.54;65.67;99334.36;106536;1266;59595;-39
2024/04/22 08:54:32;;;;;;;6.40;2.00;;;;;;;8.61;65.86;99341.17;106621;1267;60097;-39
2024/04/22 08:57:00;;;;;;;3.80;1.90;;;;;;;8.68;64.35;99341.14;106720;1267;76280;-39
2024/04/22 08:59:29;;;;;;;3.80;2.00;;;;;;;8.76;63.68;99345.21;106722;1267;68434;-39
2024/04/22 09:02:07;;;;;;;2.10;1.90;;;;;;;8.83;63.58;99345.46;106741;1266;70971;-38
2024/04/22 09:04:35;;;;;;;3.10;2.20;;;;;;;8.86;63.14;99346.07;106762;1266;60447;-38
2024/04/22 09:07:07;;;;;;;2.80;1.70;;;;;;;8.88;62.92;99349.21;106767;1265;60455;-38
2024/04/22 09:09:35;;;;;;;2.90;2.10;;;;;;;8.89;63.12;99349.25;106745;1266;72752;-37
2024/04/22 09:12:22;;;;;;;2.50;1.50;;;;;;;8.92;63.23;99351.16;106714;1267;67952;-38
2024/04/22 09:15:03;;;;;;;3.90;1.90;;;;;;;8.93;62.24;99356.74;106740;1266;71888;-38
2024/04/22 09:17:32;;;;;;;3.50;1.40;;;;;;;8.92;61.54;99360.06;106711;1266;60504;-38
2024/04/22 09:20:00;;;;;;;3.50;1.70;;;;;;;8.90;61.72;99361.56;106661;1265;60350;-38
2024/04/22 09:22:29;;;;;;;2.60;1.30;;;;;;;8.88;61.94;99363.58;106640;1264;72771;-38
2024/04/22 09:24:57;;;;;;;1.80;1.60;;;;;;;8.89;62.22;99367.55;106655;1271;68948;-37
2024/04/22 09:27:27;;;;;;;2.10;1.30;;;;;;;8.93;61.92;99372.67;106608;1267;73076;-38
2024/04/22 09:29:57;;;;;;;3.40;1.50;;;;;;;9.02;61.52;99374.45;106800;1266;60878;-38
2024/04/22 09:32:25;;;;;;;3.90;1.90;;;;;;;9.11;60.91;99380.31;106653;1267;60413;-38
2024/04/22 09:34:53;;;;;;;2.90;1.70;;;;;;;9.15;61.26;99384.13;106677;1271;72652;-38
2024/04/22 09:37:22;;;;;;;4.80;1.80;;;;;;;9.22;62.14;99378.80;106686;1264;67339;-38
2024/04/22 09:39:50;;;;;;;3.10;1.50;;;;;;;9.27;62.29;99383.40;106657;1266;74930;-38
2024/04/22 09:42:17;;;;;;;2.30;1.70;;;;;;;9.32;60.97;99387.69;106684;1267;60552;-38
2024/04/22 09:44:45;;;;;;;2.20;1.50;;;;;;;9.36;60.90;99388.80;107071;1256;60344;-38
2024/04/22 09:47:13;;;;;;;3.20;1.70;;;;;;;9.41;60.52;99393.70;107140;1257;72717;-38
2024/04/22 09:49:40;;;;;;;2.10;1.50;;;;;;;9.44;60.33;99395.95;107052;1263;66531;-38
2024/04/22 09:52:10;;;;;;;1.30;1.20;;;;;;;9.46;60.45;99392.77;107043;1264;72116;-38
2024/04/22 09:54:37;;;;;;;1.70;1.40;;;;;;;9.52;61.11;99399.47;107073;1257;60290;-38
2024/04/22 09:57:06;;;;;;;2.50;1.10;;;;;;;9.66;60.45;99402.80;107045;1257;62073;-38
2024/04/22 09:59:33;;;;;;;1.40;1.10;;;;;;;9.87;57.66;99392.46;107185;1257;73995;-38
2024/04/22 10:02:01;;;;;;;3.30;1.20;;;;;;;10.13;57.59;99394.33;107020;1257;68214;-38
2024/04/22 10:04:29;;;;;;;1.10;1.00;;;;;;;10.37;56.19;99396.23;107045;1257;71502;-38
2024/04/22 10:06:56;;;;;;;1.30;0.90;;;;;;;10.57;55.94;99392.08;107219;1257;60428;-38
2024/04/22 10:09:24;;;;;;;1.60;1.30;;;;;;;10.73;55.77;99395.25;107069;1257;62253;-38
2024/04/22 10:11:52;;;;;;;4.00;1.40;;;;;;;10.86;55.79;99396.57;107072;1257;74254;-38
2024/04/22 10:14:20;;;;;;;1.80;1.10;;;;;;;10.95;55.48;99403.77;107119;1257;68372;-38
2024/04/22 10:16:53;;;;;;;1.50;1.10;;;;;;;11.03;54.98;99410.28;107005;1257;74809;-38
2024/04/22 10:19:20;;;;;;;2.40;1.10;;;;;;;11.11;55.27;99409.33;107090;1259;60194;-38
2024/04/22 10:21:52;;;;;;;1.60;1.40;;;;;;;11.19;54.68;99403.81;107065;1257;60345;-38
2024/04/22 10:24:29;;;;;;;2.20;1.50;;;;;;;11.25;53.70;99402.20;107048;1262;72851;-38
2024/04/22 10:26:57;;;;;;;3.00;1.20;;;;;;;11.38;54.38;99404.52;107061;1257;69965;-38
2024/04/22 10:29:37;;;;;;;1.30;0.90;;;;;;;11.62;53.51;99409.31;107024;1257;72806;-38
2024/04/22 10:32:05;;;;;;;1.10;1.00;;;;;;;11.82;53.40;99411.65;107048;1257;60407;-38
2024/04/22 10:34:33;;;;;;;2.30;1.20;;;;;;;12.01;53.23;99413.25;107116;1257;59680;-38
2024/04/22 10:37:02;;;;;;;2.20;1.30;;;;;;;12.26;51.03;99411.80;107033;1257;73393;-39
2024/04/22 10:39:30;;;;;;;1.20;0.90;;;;;;;12.48;50.10;99410.91;107085;1257;66791;-39
2024/04/22 10:41:57;;;;;;;2.10;1.00;;;;;;;12.62;50.31;99412.88;107197;1258;72997;-38
2024/04/22 10:44:25;;;;;;;5.20;1.20;;;;;;;12.78;50.50;99416.84;107063;1257;60407;-39
2024/04/22 10:46:54;;;;;;;1.40;1.20;;;;;;;12.97;50.74;99418.98;107035;1257;60190;-38
2024/04/22 10:49:21;;;;;;;1.90;1.00;;;;;;;13.15;49.53;99422.62;107065;1256;72743;-39
2024/04/22 10:51:49;;;;;;;1.80;1.20;;;;;;;13.27;48.80;99426.94;107085;1257;69007;-39
2024/04/22 10:54:18;;;;;;;1.90;1.10;;;;;;;13.28;49.09;99428.26;107000;1260;71460;-38
2024/04/22 10:56:45;;;;;;;1.50;1.20;;;;;;;13.23;49.54;99433.50;107040;1262;62747;-39
2024/04/22 10:59:14;;;;;;;1.10;1.00;;;;;;;13.15;49.23;99435.52;106977;1260;60364;-39
2024/04/22 11:01:42;;;;;;;2.60;1.10;;;;;;;13.11;49.74;99438.66;106991;1260;74013;-39
2024/04/22 11:04:10;;;;;;;1.30;1.00;;;;;;;13.16;49.95;99439.82;107032;1265;66649;-39
2024/04/22 11:06:39;;;;;;;5.20;1.20;;;;;;;13.32;48.57;99444.33;106206;1259;1003043;-39
2024/04/22 11:09:10;;;;;;;2.20;1.30;;;;;;;13.36;48.34;99435.80;107003;1260;61228;-38
2024/04/22 11:11:37;;;;;;;1.40;1.30;;;;;;;13.30;48.75;99439.40;107087;1260;60328;-38
2024/04/22 11:14:05;;;;;;;1.50;1.10;;;;;;;13.28;49.56;99446.09;107050;1260;75925;-39
2024/04/22 11:16:33;;;;;;;2.00;1.10;;;;;;;13.33;49.76;99448.45;106901;1260;68168;-39
2024/04/22 11:19:01;;;;;;;1.60;1.10;;;;;;;13.41;49.02;99448.52;107028;1263;73895;-39
2024/04/22 11:21:34;;;;;;;35.10;2.10;;;;;;;13.41;48.53;99449.92;106995;1260;60431;-38
2024/04/22 11:24:02;;;;;;;1.10;1.00;;;;;;;13.36;49.43;99449.34;107071;1260;61315;-39
2024/04/22 11:26:31;;;;;;;1.60;1.10;;;;;;;13.37;48.98;99454.33;107071;1261;76090;-39
2024/04/22 11:29:01;;;;;;;1.20;1.10;;;;;;;13.36;48.89;99455.56;107097;1265;68775;-39
2024/04/22 11:31:29;;;;;;;1.00;0.90;;;;;;;13.39;49.57;99458.23;107054;1261;71498;-38
2024/04/22 11:33:56;;;;;;;1.80;1.20;;;;;;;13.44;48.65;99458.13;106887;1260;60437;-38
2024/04/22 11:36:33;;;;;;;1.60;1.10;;;;;;;13.42;48.34;99455.77;107083;1263;60442;-39
2024/04/22 11:39:21;;;;;;;1.50;1.10;;;;;;;13.34;48.31;99459.99;107079;1260;73994;-39
2024/04/22 11:41:49;;;;;;;2.00;1.20;;;;;;;13.27;48.30;99462.48;106955;1263;68620;-39
2024/04/22 11:44:17;;;;;;;1.60;1.30;;;;;;;13.14;47.74;99463.67;107032;1260;72863;-39